Latest Weather Observations for Gingin Airport

IDW60801

Issued at 3:32 pm WST Friday 27 February 2015 (issued every 30 minutes, with the page automatically refreshed every 10 minutes)

About weather observations | Map of weather stations | Latest weather observations for WA | Other Formats
Station Details ID: 009178 Name: GINGIN AERO Lat: -31.46 Lon: 115.86 Height: 73.0 m
Data from the previous 72 hours. | See also: Recent months at Gingin Airport
Date/Time
WST
Temp
°C
App
Temp
°C
Dew
Point
Rel
Hum
%
Delta-T
°C
Wind Press
QNH
hPa
Press
MSL
hPa
Rain
since 9 am
mm
Dir
 
Spd
km/h
Gust
km/h
Spd
kts
Gust
kts
27/03:30pm 24.9 19.9 14.1 51 6.4 SW 33 46 18 25 1010.2 1009.8 0.0
27/03:00pm 25.4 20.7 14.2 50 6.7 SW 32 44 17 24 1010.1 1009.7 0.0
27/02:51pm 25.1 20.3 13.9 49 6.6 SW 32 50 17 27 1010.1 1009.7 0.0
27/02:30pm 25.1 20.6 13.9 49 6.6 SW 30 43 16 23 1010.1 1009.7 0.0
27/02:00pm 26.4 21.2 12.8 43 7.9 SSW 32 41 17 22 1010.2 1009.8 0.0
27/01:30pm 26.2 20.9 13.0 44 7.7 SW 33 41 18 22 1010.0 1009.6 0.0
27/01:20pm 26.0 21.2 12.8 44 7.7 SW 30 48 16 26 1010.1 1009.7 0.0
27/01:00pm 25.3 20.6 13.2 47 7.1 SSW 30 43 16 23 1010.2 1009.8 0.0
27/12:30pm 25.1 20.5 13.6 49 6.8 SSW 30 43 16 23 1010.2 1009.8 0.0
27/12:00pm 25.1 21.3 14.6 52 6.3 SSW 28 39 15 21 1010.2 1009.8 0.0
27/11:30am 24.8 21.1 14.9 54 5.9 SW 28 41 15 22 1010.4 1010.0 0.0
27/11:00am 25.1 22.3 16.3 58 5.4 SSW 26 35 14 19 1010.3 1009.9 0.0
27/10:30am 23.8 20.4 15.8 61 4.9 SW 28 39 15 21 1010.3 1009.9 0.0
27/10:00am 23.8 20.8 16.8 65 4.3 SW 28 39 15 21 1010.4 1010.0 0.0
27/09:30am 22.6 19.3 16.9 70 3.5 SSW 30 39 16 21 1010.3 1009.9 0.0
27/09:00am 22.4 19.7 17.5 74 3.0 SW 28 39 15 21 1009.8 1009.4 0.0
27/08:30am 21.6 18.6 17.8 79 2.4 SW 30 39 16 21 1009.5 1009.1 0.0
27/08:00am 21.4 20.5 19.1 87 1.5 SW 22 30 12 16 1009.2 1008.8 0.0
27/07:30am 20.8 22.4 20.0 95 0.5 W 11 17 6 9 1009.0 1008.6 0.0
27/07:00am 20.2 22.3 20.2 100 0.0 W 9 11 5 6 1008.7 1008.3 0.0
27/06:30am 19.6 21.8 19.6 100 0.0 WSW 7 9 4 5 1008.3 1007.9 0.0
27/06:00am 19.8 21.2 19.5 98 0.2 SW 11 13 6 7 1007.9 1007.5 0.0
27/05:30am 20.5 21.0 19.3 93 0.8 SW 15 19 8 10 1007.7 1007.3 0.0
27/05:00am 21.1 21.2 19.2 89 1.2 SSW 17 20 9 11 1007.5 1007.1 0.0
27/04:30am 21.3 21.9 20.3 94 0.6 SW 17 24 9 13 1007.1 1006.7 0.0
27/04:00am 21.7 21.8 20.3 92 0.9 WSW 20 28 11 15 1006.7 1006.3 0.0
27/03:30am 21.8 22.4 21.0 95 0.5 WSW 19 22 10 12 1006.4 1006.0 0.0
27/03:00am 21.8 23.6 21.8 100 0.0 WSW 15 22 8 12 1006.3 1005.9 0.0
27/02:30am 21.4 24.1 21.4 100 0.0 WNW 9 11 5 6 1006.1 1005.7 0.0
27/02:00am 21.2 23.8 21.2 100 0.0 NW 9 13 5 7 1006.5 1006.1 0.0
27/01:30am 20.9 23.3 20.9 100 0.0 WNW 9 11 5 6 1006.6 1006.2 0.0
27/01:00am 20.9 23.7 20.9 100 0.0 NW 7 9 4 5 1006.7 1006.3 0.0
27/12:30am 21.3 23.8 21.1 99 0.1 WNW 9 11 5 6 1007.0 1006.6 0.0
27/12:00am 21.6 23.7 20.9 96 0.5 W 11 15 6 8 1007.1 1006.7 0.0
 
Date/Time
WST
Temp
°C
App
Temp
°C
Dew
Point
Rel
Hum
%
Delta-T
°C
Wind Press
QNH
hPa
Press
MSL
hPa
Rain
since 9 am
mm
Dir
 
Spd
km/h
Gust
km/h
Spd
kts
Gust
kts
26/11:30pm 22.3 23.2 20.9 92 0.9 WSW 17 22 9 12 1007.0 1006.6 0.0
26/11:00pm 22.3 25.2 21.8 97 0.3 W 9 11 5 6 1007.0 1006.6 0.0
26/10:30pm 22.3 25.2 21.8 97 0.3 WSW 9 11 5 6 1007.2 1006.8 0.0
26/10:00pm 22.7 24.2 21.2 91 1.0 WSW 15 19 8 10 1007.2 1006.8 0.0
26/09:30pm 23.1 24.2 21.9 93 0.8 WSW 19 22 10 12 1007.2 1006.8 0.0
26/09:00pm 23.6 25.9 22.0 91 1.1 W 13 20 7 11 1007.0 1006.6 0.0
26/08:30pm 23.6 25.9 22.0 91 1.1 W 13 17 7 9 1006.8 1006.4 0.0
26/08:00pm 23.4 25.7 22.0 92 0.9 WNW 13 17 7 9 1006.5 1006.1 0.0
26/07:30pm 23.4 25.9 21.8 91 1.1 WNW 11 15 6 8 1006.2 1005.8 0.0
26/07:00pm 24.0 26.4 21.5 86 1.7 W 11 17 6 9 1006.0 1005.6 0.0
26/06:30pm 24.9 26.3 21.0 79 2.6 WNW 15 19 8 10 1005.7 1005.3 0.0
26/06:00pm 25.7 26.9 20.7 74 3.3 W 15 20 8 11 1005.6 1005.2 0.0
26/05:30pm 27.4 27.2 20.5 66 4.5 WSW 22 28 12 15 1005.5 1005.1 0.0
26/05:00pm 28.3 27.8 19.2 57 5.9 WSW 20 28 11 15 1005.4 1005.0 0.0
26/04:30pm 29.3 27.8 17.8 50 7.3 WSW 22 30 12 16 1005.1 1004.7 0.0
26/04:00pm 29.7 28.5 18.5 51 7.2 WSW 22 32 12 17 1005.0 1004.6 0.0
26/03:30pm 30.7 29.5 18.4 47 7.9 WSW 22 32 12 17 1004.9 1004.5 0.0
26/03:00pm 31.8 30.4 18.0 43 8.9 WSW 22 32 12 17 1004.9 1004.5 0.0
26/02:30pm 32.4 30.8 17.5 41 9.6 WSW 22 32 12 17 1005.1 1004.7 0.0
26/02:00pm 32.7 31.5 18.5 43 9.3 W 22 32 12 17 1005.2 1004.8 0.0
26/01:30pm 32.2 30.8 18.0 42 9.2 W 22 32 12 17 1005.4 1005.0 0.0
26/01:00pm 32.3 31.6 19.5 46 8.5 WSW 22 32 12 17 1005.5 1005.1 0.0
26/12:30pm 32.7 32.0 19.6 46 8.7 W 22 30 12 16 1005.9 1005.5 0.0
26/12:00pm 32.9 32.3 20.4 47 8.4 W 24 32 13 17 1006.1 1005.7 0.0
26/11:30am 33.8 33.9 18.3 39 10.1 NW 15 24 8 13 1006.2 1005.8 0.0
26/11:00am 33.4 33.8 19.1 42 9.4 NW 15 28 8 15 1006.6 1006.2 0.0
26/10:30am 32.2 33.2 19.5 47 8.4 WNW 13 20 7 11 1006.8 1006.4 0.0
26/10:00am 31.0 32.5 19.7 51 7.5 NW 11 20 6 11 1007.1 1006.7 0.0
26/09:30am 29.6 32.0 19.6 55 6.5 NNE 6 13 3 7 1007.3 1006.9 0.0
26/09:00am 28.9 32.1 20.6 61 5.5 ENE 4 7 2 4 1007.4 1007.0 0.0
26/08:30am 26.8 31.1 21.1 71 3.8 CALM 0 6 0 3 1007.5 1007.1 0.0
26/08:00am 24.7 28.5 21.6 83 2.1 SE 4 7 2 4 1007.4 1007.0 0.0
26/07:30am 22.1 26.9 22.1 100 0.0 CALM 0 0 0 0 1007.4 1007.0 0.0
26/07:00am 21.3 25.7 21.3 100 0.0 CALM 0 0 0 0 1007.3 1006.9 0.0
26/06:30am 19.5 22.6 19.5 100 0.0 SE 2 7 1 4 1007.1 1006.7 0.0
26/06:00am 19.3 21.9 19.3 100 0.0 WSW 4 6 2 3 1006.8 1006.4 0.0
26/05:30am 19.6 22.7 19.6 100 0.0 WSW 2 6 1 3 1006.7 1006.3 0.0
26/05:00am 19.5 23.0 19.5 100 0.0 CALM 0 0 0 0 1006.6 1006.2 0.0
26/04:30am 19.6 22.0 19.6 100 0.0 WSW 6 9 3 5 1006.4 1006.0 0.0
26/04:00am 19.9 23.2 19.9 100 0.0 WNW 2 6 1 3 1006.5 1006.1 0.0
26/03:30am 20.3 22.8 20.3 100 0.0 NW 7 9 4 5 1006.5 1006.1 0.0
26/03:00am 20.5 23.1 20.5 100 0.0 NNE 7 7 4 4 1006.5 1006.1 0.0
26/02:30am 20.5 22.7 20.5 100 0.0 NNE 9 9 5 5 1006.5 1006.1 0.0
26/02:00am 20.6 22.5 20.6 100 0.0 N 11 13 6 7 1007.3 1006.9 0.0
26/01:30am 20.8 23.6 20.8 100 0.0 NNW 7 9 4 5 1007.1 1006.7 0.0
26/01:00am 21.1 24.3 20.6 97 0.3 NNW 4 9 2 5 1007.1 1006.7 0.0
26/12:30am 21.9 25.8 21.1 95 0.5 WNW 2 9 1 5 1007.0 1006.6 0.0
26/12:00am 22.1 24.4 20.7 92 0.9 W 9 15 5 8 1007.5 1007.1 0.0
 
Date/Time
WST
Temp
°C
App
Temp
°C
Dew
Point
Rel
Hum
%
Delta-T
°C
Wind Press
QNH
hPa
Press
MSL
hPa
Rain
since 9 am
mm
Dir
 
Spd
km/h
Gust
km/h
Spd
kts
Gust
kts
25/11:30pm 22.6 23.9 20.1 86 1.6 WNW 13 17 7 9 1007.5 1007.1 0.0
25/11:00pm 23.0 25.0 20.0 83 1.9 NNE 9 20 5 11 1008.4 1008.0 0.0
25/10:30pm 23.2 25.7 20.3 84 1.9 NW 7 11 4 6 1007.7 1007.3 0.0
25/10:00pm 24.2 25.0 19.1 73 3.3 WSW 13 17 7 9 1007.5 1007.1 0.0
25/09:30pm 25.6 28.2 18.3 64 4.6 SW 2 7 1 4 1007.5 1007.1 0.0
25/09:00pm 25.7 27.5 18.4 64 4.7 WSW 6 9 3 5 1007.5 1007.1 0.0
25/08:30pm 26.4 27.5 18.0 60 5.3 SW 9 11 5 6 1007.6 1007.2 0.0
25/08:00pm 27.3 28.8 18.0 56 5.9 E 7 9 4 5 1007.7 1007.3 0.0
25/07:30pm 27.7 30.6 18.1 56 6.1 CALM 0 0 0 0 1007.6 1007.2 0.0
25/07:00pm 27.6 28.7 18.0 55 6.1 SSE 9 13 5 7 1007.4 1007.0 0.0
25/06:30pm 28.9 28.7 18.4 53 6.7 SSW 17 20 9 11 1006.8 1006.4 0.0
25/06:00pm 31.5 29.8 14.6 36 10.4 SSW 17 24 9 13 1006.4 1006.0 0.0
25/05:30pm 33.6 30.9 13.6 29 12.2 WSW 20 28 11 15 1005.9 1005.5 0.0
25/05:00pm 33.8 29.9 13.3 29 12.5 WSW 26 33 14 18 1005.9 1005.5 0.0
25/04:30pm 34.7 31.4 14.0 28 12.7 SW 24 32 13 17 1005.8 1005.4 0.0
25/04:00pm 35.4 31.9 13.5 26 13.4 WSW 24 32 13 17 1005.6 1005.2 0.0
25/03:30pm 35.3 31.8 14.6 29 12.9 SW 26 33 14 18 1005.8 1005.4 0.0
25/03:00pm 36.1 32.9 15.2 28 13.2 WSW 26 37 14 20 1005.9 1005.5 0.0
25/02:30pm 36.5 33.8 14.5 27 13.7 WSW 22 33 12 18 1006.1 1005.7 0.0
25/02:00pm 36.2 33.6 14.8 28 13.4 WSW 22 32 12 17 1006.3 1005.9 0.0
25/01:30pm 36.9 35.3 16.5 30 13.1 WSW 20 32 11 17 1006.4 1006.0 0.0
25/01:00pm 36.4 35.4 17.5 32 12.3 WSW 19 26 10 14 1006.5 1006.1 0.0
25/12:30pm 36.2 36.8 16.9 32 12.4 SSW 9 17 5 9 1006.8 1006.4 0.0
25/12:00pm 35.7 36.9 17.4 33 11.9 SSE 7 13 4 7 1007.1 1006.7 0.0
25/11:30am 34.6 36.4 18.2 37 10.7 S 6 9 3 5 1007.4 1007.0 0.0
25/11:00am 33.2 34.1 19.3 44 9.2 WSW 13 19 7 10 1007.9 1007.5 0.0
25/10:30am 32.0 33.4 20.3 50 7.8 SW 13 19 7 10 1008.4 1008.0 0.0
25/10:00am 30.2 31.3 20.4 55 6.5 WSW 15 20 8 11 1008.5 1008.1 0.0
25/09:30am 29.5 31.0 20.6 58 5.9 WSW 13 20 7 11 1008.6 1008.2 0.0
25/09:00am 28.2 31.4 20.5 63 5.1 SW 4 9 2 5 1008.7 1008.3 0.0
25/08:30am 26.7 29.4 22.1 76 3.1 SSW 11 13 6 7 1008.7 1008.3 0.0
25/08:00am 24.4 27.6 23.7 96 0.5 SSW 13 17 7 9 1008.9 1008.5 0.0
25/07:30am 23.3 27.6 23.3 100 0.0 ENE 6 7 3 4 1008.3 1007.9 0.0
25/07:00am 21.0 25.2 21.0 100 0.0 CALM 0 0 0 0 1008.2 1007.8 0.0
25/06:30am 20.5 23.3 20.5 100 0.0 E 6 6 3 3 1008.1 1007.7 0.0
25/06:00am 20.7 24.8 20.7 100 0.0 CALM 0 0 0 0 1008.0 1007.6 0.0
25/05:30am 20.8 24.9 20.8 100 0.0 CALM 0 0 0 0 1007.9 1007.5 0.0
25/05:00am 20.9 23.7 20.9 100 0.0 SE 7 7 4 4 1007.7 1007.3 0.0
25/04:30am 20.9 23.9 20.9 100 0.0 SSE 6 9 3 5 1007.5 1007.1 0.0
25/04:00am 20.8 24.1 20.8 100 0.0 SSE 4 9 2 5 1008.0 1007.6 0.0
25/03:30am 21.1 25.0 21.1 100 0.0 SSE 2 7 1 4 1007.5 1007.1 0.0
25/03:00am 20.6 24.6 20.6 100 0.0 CALM 0 0 0 0 1007.3 1006.9 0.0
25/02:30am 21.2 24.4 21.2 100 0.0 SW 6 7 3 4 1007.3 1006.9 0.0
25/02:00am 21.4 24.1 21.4 100 0.0 WSW 9 13 5 7 1007.8 1007.4 0.0
25/01:30am 21.4 24.1 20.6 95 0.5 W 7 11 4 6 1007.8 1007.4 0.0
25/01:00am 21.9 25.7 20.2 90 1.1 CALM 0 0 0 0 1007.3 1006.9 0.0
25/12:30am 22.5 26.4 20.4 88 1.4 CALM 0 0 0 0 1007.9 1007.5 0.0
25/12:00am 23.4 27.1 20.7 85 1.8 WSW 2 6 1 3 1008.0 1007.6 0.0
 
Date/Time
WST
Temp
°C
App
Temp
°C
Dew
Point
Rel
Hum
%
Delta-T
°C
Wind Press
QNH
hPa
Press
MSL
hPa
Rain
since 9 am
mm
Dir
 
Spd
km/h
Gust
km/h
Spd
kts
Gust
kts
24/11:30pm 23.6 25.9 20.7 84 1.9 WSW 9 13 5 7 1008.2 1007.8 0.0
24/11:00pm 24.5 28.2 20.8 80 2.4 NE 2 7 1 4 1008.6 1008.2 0.0
24/10:30pm 24.6 27.4 20.9 80 2.4 N 7 15 4 8 1009.5 1009.1 0.0
24/10:00pm 24.8 27.2 20.9 79 2.6 SSW 9 13 5 7 1008.9 1008.5 0.0
24/09:30pm 25.0 28.0 20.9 78 2.7 NW 6 11 3 6 1009.2 1008.8 0.0
24/09:00pm 25.3 27.7 20.8 76 3.0 WNW 9 11 5 6 1009.4 1009.0 0.0
24/08:30pm 25.7 27.9 20.5 73 3.4 WNW 9 15 5 8 1008.9 1008.5 0.0
24/08:00pm 25.9 27.6 20.2 71 3.7 SW 11 13 6 7 1008.3 1007.9 0.0
24/07:30pm 26.4 27.6 19.8 67 4.3 WSW 13 15 7 8 1007.7 1007.3 0.0
24/07:00pm 26.9 27.7 19.0 62 5.1 WSW 13 17 7 9 1007.8 1007.4 0.0
24/06:30pm 27.5 26.8 18.2 57 5.9 W 19 26 10 14 1007.6 1007.2 0.0
24/06:00pm 28.9 27.8 17.7 50 7.1 W 20 26 11 14 1007.5 1007.1 0.0
24/05:30pm 30.9 29.5 16.9 43 8.9 W 20 28 11 15 1007.0 1006.6 0.0
24/05:00pm 32.1 29.4 15.6 37 10.3 WNW 24 35 13 19 1007.0 1006.6 0.0
24/04:30pm 33.3 31.4 16.6 36 10.6 WNW 22 35 12 19 1006.9 1006.5 0.0
24/04:00pm 34.4 32.5 16.7 34 11.3 WNW 22 35 12 19 1006.7 1006.3 0.0

Other Formats:

Comma delimited format used in spreadsheet applications
http://www.bom.gov.au/fwo/IDW60801/IDW60801.95612.axf

JavaScript Object Notation format (JSON) in row-major order
http://www.bom.gov.au/fwo/IDW60801/IDW60801.95612.json